createdAt,value
2022-08-05T00:00:53.065Z,26.38
2022-08-05T00:03:56.888Z,26.42
2022-08-05T00:07:01.750Z,26.40
2022-08-05T00:10:27.020Z,26.34
2022-08-05T00:13:38.906Z,26.24
2022-08-05T00:16:52.637Z,26.26
2022-08-05T00:20:02.043Z,26.21
2022-08-05T00:23:12.503Z,26.17
2022-08-05T00:26:16.800Z,26.14
2022-08-05T00:29:19.392Z,25.97
2022-08-05T00:32:26.326Z,25.99
2022-08-05T00:35:33.150Z,25.96
2022-08-05T00:38:39.746Z,25.95
2022-08-05T00:41:55.031Z,25.91
2022-08-05T00:44:58.636Z,25.82
2022-08-05T00:48:05.472Z,25.69
2022-08-05T00:51:51.706Z,25.58
2022-08-05T00:54:35.483Z,25.59
2022-08-05T00:57:58.508Z,25.58
2022-08-05T01:01:02.483Z,25.53
2022-08-05T01:04:14.067Z,25.54
2022-08-05T01:07:17.985Z,25.48
2022-08-05T01:10:36.448Z,25.52
2022-08-05T01:13:58.788Z,25.52
2022-08-05T01:17:06.967Z,25.53
2022-08-05T01:20:22.438Z,25.56
2022-08-05T01:23:40.963Z,25.45
2022-08-05T01:26:57.959Z,25.40
2022-08-05T01:30:05.376Z,25.31
2022-08-05T01:33:25.188Z,25.41
2022-08-05T01:36:32.078Z,25.41
2022-08-05T01:39:46.096Z,25.28
2022-08-05T01:42:52.750Z,25.34
2022-08-05T01:46:07.431Z,25.31
2022-08-05T01:49:24.895Z,25.18
2022-08-05T01:52:29.272Z,25.20
2022-08-05T01:55:36.055Z,25.27
2022-08-05T01:58:45.423Z,25.09
2022-08-05T02:01:54.875Z,25.08
2022-08-05T02:05:03.077Z,25.02
2022-08-05T02:08:06.909Z,25.03
2022-08-05T02:11:12.449Z,24.99
2022-08-05T02:14:21.866Z,25.09
2022-08-05T02:18:31.138Z,25.09
2022-08-05T02:21:00.029Z,25.05
2022-08-05T02:24:10.243Z,25.13
2022-08-05T02:27:14.455Z,25.13
2022-08-05T02:30:18.784Z,25.03
2022-08-05T02:33:38.592Z,24.87
2022-08-05T02:36:45.315Z,24.81
2022-08-05T02:39:51.619Z,24.94
2022-08-05T02:42:56.509Z,24.80
2022-08-05T02:46:01.085Z,24.85
2022-08-05T02:49:07.569Z,24.84
2022-08-05T02:52:30.201Z,24.80
2022-08-05T02:55:54.265Z,24.82
2022-08-05T02:58:59.404Z,24.80
2022-08-05T03:02:04.043Z,24.81
2022-08-05T03:05:10.902Z,24.86
2022-08-05T03:08:16.536Z,24.81
2022-08-05T03:11:57.015Z,24.81
2022-08-05T03:14:46.059Z,24.73
2022-08-05T03:17:48.893Z,24.66
2022-08-05T03:20:58.337Z,24.65
2022-08-05T03:24:03.202Z,24.78
2022-08-05T03:27:06.739Z,24.67
2022-08-05T03:30:11.272Z,24.73
2022-08-05T03:33:15.384Z,24.71
2022-08-05T03:36:29.766Z,24.78
2022-08-05T03:39:38.227Z,24.88
2022-08-05T03:42:56.222Z,24.84
2022-08-05T03:45:59.125Z,24.85
2022-08-05T03:49:02.625Z,24.75
2022-08-05T03:52:39.332Z,24.78
2022-08-05T03:56:04.724Z,24.81
2022-08-05T03:59:07.714Z,24.75
2022-08-05T04:02:17.332Z,24.71
2022-08-05T04:05:37.078Z,24.81
2022-08-05T04:08:46.648Z,24.90
2022-08-05T04:11:52.642Z,24.94
2022-08-05T04:14:57.788Z,24.99
2022-08-05T04:18:03.037Z,25.10
2022-08-05T04:21:06.773Z,25.12
2022-08-05T04:24:18.789Z,25.24
2022-08-05T04:27:41.615Z,25.21
2022-08-05T04:30:46.925Z,25.24
2022-08-05T04:34:17.568Z,25.28
2022-08-05T04:37:13.425Z,25.32
2022-08-05T04:40:19.471Z,25.32
2022-08-05T04:43:22.365Z,25.44
2022-08-05T04:46:27.798Z,25.74
2022-08-05T04:49:39.260Z,25.96
2022-08-05T04:52:53.954Z,26.30
2022-08-05T04:56:33.934Z,26.32
2022-08-05T04:59:36.618Z,26.51
2022-08-05T05:02:43.478Z,26.65
2022-08-05T05:06:39.670Z,26.59
2022-08-05T05:09:09.881Z,26.45
2022-08-05T05:12:18.196Z,26.54
2022-08-05T05:15:57.320Z,26.59
2022-08-05T05:18:57.085Z,26.41
2022-08-05T05:22:22.759Z,26.41
2022-08-05T05:25:33.033Z,26.37
2022-08-05T05:28:45.599Z,26.31
2022-08-05T05:31:48.265Z,26.21
2022-08-05T05:34:52.344Z,26.21
2022-08-05T05:38:00.053Z,26.15
2022-08-05T05:41:04.203Z,26.33
2022-08-05T05:44:35.679Z,26.35
2022-08-05T05:48:07.087Z,26.10
2022-08-05T05:50:58.528Z,25.86
2022-08-05T05:54:17.495Z,25.74
2022-08-05T05:57:22.432Z,25.90
2022-08-05T06:00:31.424Z,25.70
2022-08-05T06:03:53.830Z,25.75
2022-08-05T06:07:01.446Z,25.88
2022-08-05T06:10:10.014Z,25.76
2022-08-05T06:13:13.470Z,25.78
2022-08-05T06:16:31.067Z,25.70
2022-08-05T06:19:35.822Z,25.75
2022-08-05T06:22:40.571Z,25.95
2022-08-05T06:26:12.150Z,26.31
2022-08-05T06:29:25.444Z,26.64
2022-08-05T06:32:31.809Z,26.75
2022-08-05T06:36:07.341Z,26.74
2022-08-05T06:38:57.161Z,26.74
2022-08-05T06:42:04.160Z,26.89
2022-08-05T06:45:08.575Z,27.33
2022-08-05T06:48:56.107Z,27.74
2022-08-05T06:51:35.521Z,28.20
2022-08-05T06:54:43.251Z,28.61
2022-08-05T06:57:57.760Z,28.90
2022-08-05T07:01:07.449Z,29.18
2022-08-05T07:04:13.932Z,28.61
2022-08-05T07:07:17.109Z,28.47
2022-08-05T07:10:38.293Z,28.18
2022-08-05T07:14:15.607Z,27.53
2022-08-05T07:18:00.161Z,27.47
2022-08-05T07:20:47.638Z,26.85
2022-08-05T07:23:52.272Z,26.68
2022-08-05T07:26:55.214Z,26.90
2022-08-05T07:30:22.254Z,26.98
2022-08-05T07:33:36.487Z,27.21
2022-08-05T07:36:41.698Z,27.06
2022-08-05T07:40:07.230Z,26.95
2022-08-05T07:43:20.250Z,26.62
2022-08-05T07:46:24.841Z,26.40
2022-08-05T07:49:28.662Z,26.23
2022-08-05T07:52:32.628Z,25.85
2022-08-05T07:55:53.598Z,25.82
2022-08-05T07:58:59.132Z,25.76
2022-08-05T08:02:03.222Z,25.67
2022-08-05T08:05:06.828Z,25.73
2022-08-05T08:08:12.351Z,25.74
2022-08-05T08:11:16.045Z,25.67
2022-08-05T08:14:19.220Z,25.67
2022-08-05T08:17:22.077Z,25.62
2022-08-05T08:21:00.495Z,25.63
2022-08-05T08:24:02.309Z,25.60
2022-08-05T08:27:08.003Z,25.63
2022-08-05T08:30:27.631Z,25.67
2022-08-05T08:33:35.938Z,25.79
2022-08-05T08:36:47.594Z,26.01
2022-08-05T08:39:56.732Z,26.11
2022-08-05T08:45:17.109Z,26.17
2022-08-05T08:46:25.130Z,25.99
2022-08-05T08:50:07.799Z,25.81
2022-08-05T08:52:57.613Z,25.67
2022-08-05T08:56:05.830Z,25.65
2022-08-05T08:59:19.208Z,25.57
2022-08-05T09:02:26.623Z,25.70
2022-08-05T09:05:38.719Z,25.60
2022-08-05T09:08:52.261Z,25.52
2022-08-05T09:12:03.251Z,25.52
2022-08-05T09:15:09.350Z,25.47
2022-08-05T09:18:13.506Z,25.67
2022-08-05T09:21:20.799Z,25.88
2022-08-05T09:24:39.084Z,26.08
2022-08-05T09:28:04.505Z,26.00
2022-08-05T09:31:23.265Z,25.95
2022-08-05T09:34:47.646Z,26.07
2022-08-05T09:38:16.593Z,25.37
2022-08-05T09:41:16.143Z,25.34
2022-08-05T09:44:34.257Z,25.38
2022-08-05T09:47:55.002Z,25.23
2022-08-05T09:51:01.437Z,25.16
2022-08-05T09:54:07.639Z,25.24
2022-08-05T09:57:23.544Z,25.12
2022-08-05T10:00:30.558Z,25.06
2022-08-05T10:03:56.951Z,25.11
2022-08-05T10:06:59.086Z,25.24
2022-08-05T10:10:14.197Z,25.24
2022-08-05T10:13:31.555Z,25.36
2022-08-05T10:16:52.988Z,25.46
2022-08-05T10:20:04.041Z,25.42
2022-08-05T10:23:34.400Z,25.59
2022-08-05T10:26:51.257Z,25.54
2022-08-05T10:30:41.247Z,25.49
2022-08-05T10:33:19.465Z,25.83
2022-08-05T10:36:26.039Z,26.06
2022-08-05T10:40:03.639Z,26.27
2022-08-05T10:43:02.504Z,26.42
2022-08-05T10:46:10.561Z,27.04
2022-08-05T10:49:16.897Z,27.24
2022-08-05T10:52:40.428Z,28.60
2022-08-05T10:56:07.964Z,29.37
2022-08-05T11:00:03.553Z,29.77
2022-08-05T11:03:25.702Z,30.47
2022-08-05T11:06:31.326Z,30.72
2022-08-05T11:09:46.609Z,30.98
2022-08-05T11:12:50.565Z,31.29
2022-08-05T11:16:22.712Z,31.01
2022-08-05T11:20:09.939Z,31.18
2022-08-05T11:24:02.895Z,31.61
2022-08-05T11:27:50.110Z,31.67
2022-08-05T11:31:56.968Z,31.80
2022-08-05T11:34:50.918Z,31.40
2022-08-05T11:38:29.157Z,31.55
2022-08-05T11:41:56.403Z,31.65
2022-08-05T11:45:01.961Z,32.01
2022-08-05T11:48:09.417Z,32.26
2022-08-05T11:51:44.725Z,32.65
2022-08-05T11:54:40.454Z,32.09
2022-08-05T11:58:09.840Z,31.74
2022-08-05T12:01:12.776Z,32.27
2022-08-05T12:04:21.793Z,32.02
2022-08-05T12:08:03.467Z,32.13
2022-08-05T12:10:50.537Z,32.49
2022-08-05T12:13:58.729Z,32.18
2022-08-05T12:18:03.375Z,31.75
2022-08-05T12:20:38.612Z,31.78
2022-08-05T12:23:43.251Z,32.03
2022-08-05T12:26:48.601Z,32.04
2022-08-05T12:30:04.643Z,31.92
2022-08-05T12:33:27.240Z,31.97
2022-08-05T12:36:30.600Z,31.59
2022-08-05T12:39:38.492Z,31.37
2022-08-05T12:42:41.916Z,31.30
2022-08-05T12:45:56.693Z,31.84
2022-08-05T12:49:01.152Z,31.73
2022-08-05T12:52:23.956Z,32.36
2022-08-05T12:55:32.951Z,32.74
2022-08-05T12:58:38.235Z,32.86
2022-08-05T13:02:06.829Z,32.12
2022-08-05T13:05:11.143Z,32.31
2022-08-05T13:08:19.514Z,32.78
2022-08-05T13:12:01.064Z,32.36
2022-08-05T13:14:48.030Z,32.27
2022-08-05T13:18:09.820Z,32.14
2022-08-05T13:21:12.569Z,31.89
2022-08-05T13:24:36.214Z,31.37
2022-08-05T13:27:42.687Z,31.17
2022-08-05T13:30:45.478Z,30.85
2022-08-05T13:34:21.710Z,30.79
2022-08-05T13:37:15.206Z,30.67
2022-08-05T13:40:48.170Z,30.34
2022-08-05T13:43:55.193Z,30.31
2022-08-05T13:47:02.341Z,30.34
2022-08-05T13:50:16.490Z,30.36
2022-08-05T13:53:19.514Z,30.38
2022-08-05T13:56:22.382Z,30.43
2022-08-05T13:59:26.963Z,30.48
2022-08-05T14:02:31.383Z,30.54
2022-08-05T14:06:24.713Z,30.54
2022-08-05T14:09:00.519Z,30.82
2022-08-05T14:12:17.142Z,30.83
2022-08-05T14:16:07.159Z,31.17
2022-08-05T14:18:43.623Z,31.07
2022-08-05T14:22:10.216Z,30.36
2022-08-05T14:25:19.072Z,29.68
2022-08-05T14:28:26.229Z,29.82
2022-08-05T14:32:03.778Z,29.67
2022-08-05T14:34:52.598Z,29.56
2022-08-05T14:37:56.592Z,29.47
2022-08-05T14:41:07.700Z,29.28
2022-08-05T14:44:20.471Z,29.08
2022-08-05T14:48:03.669Z,29.02
2022-08-05T14:50:48.241Z,28.78
2022-08-05T14:54:26.686Z,28.66
2022-08-05T14:57:16.352Z,28.43
2022-08-05T15:00:21.349Z,28.30
2022-08-05T15:03:33.581Z,28.30
2022-08-05T15:06:41.801Z,28.00
2022-08-05T15:09:54.172Z,27.92
2022-08-05T15:13:03.301Z,27.87
2022-08-05T15:16:08.129Z,27.82
2022-08-05T15:19:23.704Z,27.71
2022-08-05T15:22:28.238Z,27.63
2022-08-05T15:25:41.121Z,27.23
2022-08-05T15:28:55.318Z,27.27
2022-08-05T15:32:02.363Z,27.33
2022-08-05T15:35:10.881Z,27.02
2022-08-05T15:38:35.946Z,27.02
2022-08-05T15:41:58.139Z,26.99
2022-08-05T15:45:01.856Z,26.91
2022-08-05T15:48:05.623Z,26.95
2022-08-05T15:51:10.917Z,27.06
2022-08-05T15:54:14.996Z,27.02
2022-08-05T15:57:20.679Z,27.13
2022-08-05T16:00:26.176Z,27.15
2022-08-05T16:03:35.591Z,27.15
2022-08-05T16:06:43.775Z,27.15
2022-08-05T16:09:46.457Z,26.94
2022-08-05T16:12:51.699Z,26.87
2022-08-05T16:15:55.038Z,26.77
2022-08-05T16:18:58.070Z,26.79
2022-08-05T16:22:03.668Z,26.63
2022-08-05T16:25:09.688Z,26.44
2022-08-05T16:28:15.493Z,26.13
2022-08-05T16:31:18.389Z,25.80
2022-08-05T16:34:22.573Z,25.88
2022-08-05T16:38:02.277Z,25.82
2022-08-05T16:40:54.926Z,25.98
2022-08-05T16:44:03.746Z,25.95
2022-08-05T16:47:07.219Z,25.69
2022-08-05T16:50:30.712Z,25.41
2022-08-05T16:54:04.304Z,25.28
2022-08-05T16:56:56.880Z,24.98
2022-08-05T17:00:08.584Z,24.91
2022-08-05T17:03:20.359Z,24.91
2022-08-05T17:06:24.508Z,24.44
2022-08-05T17:09:27.755Z,24.26
2022-08-05T17:12:51.822Z,23.80
2022-08-05T17:16:19.479Z,23.52
2022-08-05T17:19:19.222Z,23.56
2022-08-05T17:22:24.879Z,23.36
2022-08-05T17:25:34.180Z,23.11
2022-08-05T17:28:43.020Z,22.85
2022-08-05T17:31:58.640Z,22.76
2022-08-05T17:35:02.195Z,22.71
2022-08-05T17:38:08.037Z,22.78
2022-08-05T17:41:11.746Z,22.85
2022-08-05T17:44:34.140Z,22.53
2022-08-05T17:47:40.442Z,22.53
2022-08-05T17:50:43.158Z,22.30
2022-08-05T17:53:45.862Z,22.11
2022-08-05T17:56:57.379Z,22.18
2022-08-05T18:00:05.232Z,22.19
2022-08-05T18:03:10.305Z,22.00
2022-08-05T18:06:15.353Z,22.07
2022-08-05T18:09:18.333Z,21.89
2022-08-05T18:12:24.355Z,21.98
2022-08-05T18:15:27.563Z,21.80
2022-08-05T18:18:39.908Z,21.89
2022-08-05T18:22:08.758Z,21.67
2022-08-05T18:25:06.334Z,21.93
2022-08-05T18:28:09.895Z,21.97
2022-08-05T18:31:12.674Z,21.87
2022-08-05T18:34:21.748Z,21.89
2022-08-05T18:37:33.919Z,21.85
2022-08-05T18:41:53.594Z,21.97
2022-08-05T18:44:07.860Z,22.03
2022-08-05T18:47:12.058Z,21.97
2022-08-05T18:50:42.200Z,21.76
2022-08-05T18:53:50.128Z,21.74
2022-08-05T18:56:53.458Z,21.77
2022-08-05T19:00:02.205Z,21.45
2022-08-05T19:03:06.133Z,21.48
2022-08-05T19:06:18.752Z,21.23
2022-08-05T19:09:24.994Z,21.34
2022-08-05T19:12:28.535Z,21.14
2022-08-05T19:15:58.950Z,21.14
2022-08-05T19:18:56.369Z,20.98
2022-08-05T19:22:01.025Z,20.86
2022-08-05T19:25:03.719Z,20.88
2022-08-05T19:28:06.402Z,20.90
2022-08-05T19:31:09.119Z,20.93
2022-08-05T19:34:18.660Z,20.71
2022-08-05T19:37:29.793Z,20.71
2022-08-05T19:40:37.911Z,20.56
2022-08-05T19:44:06.342Z,20.53
2022-08-05T19:47:05.414Z,20.58
2022-08-05T19:50:12.560Z,20.53
2022-08-05T19:53:16.642Z,20.43
2022-08-05T19:56:39.417Z,20.44
2022-08-05T20:00:00.806Z,20.59
2022-08-05T20:03:09.039Z,20.26
2022-08-05T20:06:15.957Z,20.27
2022-08-05T20:09:54.092Z,20.17
2022-08-05T20:12:56.094Z,20.23
2022-08-05T20:15:59.748Z,20.34
2022-08-05T20:19:03.346Z,20.43
2022-08-05T20:22:06.306Z,20.40
2022-08-05T20:25:13.857Z,20.29
2022-08-05T20:28:16.493Z,20.26
2022-08-05T20:31:21.862Z,20.09
2022-08-05T20:34:31.160Z,20.01
2022-08-05T20:38:06.331Z,19.93
2022-08-05T20:40:58.468Z,19.92
2022-08-05T20:44:07.130Z,19.93
2022-08-05T20:47:31.991Z,19.90
2022-08-05T20:50:36.930Z,20.16
2022-08-05T20:53:42.434Z,20.40
2022-08-05T20:56:59.508Z,20.61
2022-08-05T21:00:19.756Z,20.68
2022-08-05T21:03:34.477Z,20.42
2022-08-05T21:06:45.077Z,20.14
2022-08-05T21:09:50.114Z,20.32
2022-08-05T21:13:08.983Z,20.42
2022-08-05T21:16:18.791Z,20.39
2022-08-05T21:19:23.406Z,20.38
2022-08-05T21:22:26.493Z,20.24
2022-08-05T21:25:33.877Z,20.19
2022-08-05T21:28:39.865Z,20.34
2022-08-05T21:31:50.844Z,20.26
2022-08-05T21:35:06.901Z,20.33
2022-08-05T21:38:17.194Z,20.20
2022-08-05T21:41:20.620Z,20.11
2022-08-05T21:44:26.812Z,20.18
2022-08-05T21:47:55.229Z,20.16
2022-08-05T21:50:54.040Z,19.80
2022-08-05T21:54:03.574Z,19.58
2022-08-05T21:57:30.666Z,19.38
2022-08-05T22:00:31.188Z,19.29
2022-08-05T22:03:52.290Z,19.33
2022-08-05T22:06:57.013Z,19.08
2022-08-05T22:10:00.294Z,19.25
2022-08-05T22:13:58.867Z,19.29
2022-08-05T22:16:42.117Z,19.41
2022-08-05T22:20:01.931Z,19.53
2022-08-05T22:24:02.432Z,19.23
2022-08-05T22:27:06.822Z,18.87
2022-08-05T22:30:15.038Z,18.76
2022-08-05T22:33:57.134Z,18.82
2022-08-05T22:36:44.132Z,18.74
2022-08-05T22:39:50.924Z,18.49
2022-08-05T22:42:58.399Z,18.70
2022-08-05T22:46:07.258Z,18.72
2022-08-05T22:50:17.235Z,18.85
2022-08-05T22:52:37.401Z,18.78
2022-08-05T22:55:57.338Z,18.44
2022-08-05T22:59:04.086Z,18.55
2022-08-05T23:02:29.061Z,18.76
2022-08-05T23:05:36.111Z,18.63
2022-08-05T23:08:39.132Z,18.48
2022-08-05T23:11:41.884Z,18.50
2022-08-05T23:14:49.509Z,18.31
2022-08-05T23:18:01.757Z,18.38
2022-08-05T23:21:07.527Z,18.23
2022-08-05T23:24:13.143Z,18.12
2022-08-05T23:27:16.418Z,18.30
2022-08-05T23:30:27.067Z,18.22
2022-08-05T23:34:02.922Z,18.36
2022-08-05T23:36:56.035Z,18.14
2022-08-05T23:40:02.000Z,17.80
2022-08-05T23:43:11.482Z,18.00
2022-08-05T23:46:28.817Z,17.83
2022-08-05T23:49:35.672Z,17.79
2022-08-05T23:52:50.154Z,17.76
2022-08-05T23:55:53.533Z,17.76
2022-08-05T23:58:58.554Z,17.61
